createdAt,value
2022-10-22T00:01:09.620Z,20.43
2022-10-22T00:03:36.509Z,25.63
2022-10-22T00:06:06.140Z,27.87
2022-10-22T00:08:33.186Z,17.27
2022-10-22T00:11:08.524Z,22.00
2022-10-22T00:13:38.106Z,20.83
2022-10-22T00:16:08.035Z,17.30
2022-10-22T00:18:35.202Z,22.00
2022-10-22T00:21:05.673Z,19.57
2022-10-22T00:23:32.502Z,20.50
2022-10-22T00:25:59.378Z,22.63
2022-10-22T00:28:26.503Z,23.83
2022-10-22T00:31:02.815Z,18.67
2022-10-22T00:33:32.566Z,23.50
2022-10-22T00:36:01.607Z,20.37
2022-10-22T00:38:28.403Z,25.77
2022-10-22T00:40:55.511Z,19.33
2022-10-22T00:43:22.733Z,28.83
2022-10-22T00:45:54.853Z,29.70
2022-10-22T00:48:31.576Z,24.70
2022-10-22T00:51:06.617Z,19.73
2022-10-22T00:53:43.058Z,25.63
2022-10-22T00:56:10.895Z,15.50
2022-10-22T00:58:44.462Z,22.83
2022-10-22T01:01:26.819Z,24.40
2022-10-22T01:03:56.003Z,31.87
2022-10-22T01:06:32.596Z,21.37
2022-10-22T01:09:29.995Z,21.23
2022-10-22T01:12:31.079Z,15.10
2022-10-22T01:15:21.392Z,19.67
2022-10-22T01:18:04.390Z,17.97
2022-10-22T01:20:57.430Z,25.50
2022-10-22T01:24:06.411Z,19.10
2022-10-22T01:26:44.147Z,19.10
2022-10-22T01:29:25.815Z,17.57
2022-10-22T01:32:01.561Z,18.03
2022-10-22T01:34:30.231Z,19.27
2022-10-22T01:37:00.659Z,14.73
2022-10-22T01:39:31.511Z,17.93
2022-10-22T01:41:58.606Z,19.77
2022-10-22T01:44:27.868Z,18.90
2022-10-22T01:47:19.634Z,17.10
2022-10-22T01:50:23.951Z,17.03
2022-10-22T01:53:05.160Z,17.10
2022-10-22T01:56:32.440Z,14.77
2022-10-22T01:59:15.758Z,17.33
2022-10-22T02:02:20.118Z,16.93
2022-10-22T02:04:53.898Z,23.13
2022-10-22T02:07:28.963Z,24.83
2022-10-22T02:09:57.517Z,21.83
2022-10-22T02:12:27.338Z,17.40
2022-10-22T02:14:55.807Z,20.10
2022-10-22T02:17:25.080Z,22.63
2022-10-22T02:20:01.532Z,16.97
2022-10-22T02:22:31.537Z,18.93
2022-10-22T02:25:01.107Z,21.83
2022-10-22T02:27:36.237Z,18.90
2022-10-22T02:30:14.153Z,19.93
2022-10-22T02:32:57.375Z,22.90
2022-10-22T02:35:29.291Z,22.30
2022-10-22T02:37:58.626Z,18.43
2022-10-22T02:40:33.200Z,21.23
2022-10-22T02:43:02.949Z,20.53
2022-10-22T02:45:29.897Z,16.77
2022-10-22T02:47:59.185Z,18.83
2022-10-22T02:50:26.056Z,23.17
2022-10-22T02:52:55.623Z,20.47
2022-10-22T02:55:22.481Z,24.10
2022-10-22T02:57:49.322Z,18.13
2022-10-22T03:00:19.328Z,24.30
2022-10-22T03:02:46.164Z,19.23
2022-10-22T03:05:13.463Z,19.67
2022-10-22T03:07:42.713Z,28.00
2022-10-22T03:10:12.299Z,19.33
2022-10-22T03:12:39.127Z,17.00
2022-10-22T03:15:06.514Z,23.90
2022-10-22T03:17:35.899Z,21.20
2022-10-22T03:20:02.834Z,24.93
2022-10-22T03:22:34.284Z,28.87
2022-10-22T03:25:08.212Z,19.90
2022-10-22T03:27:39.838Z,17.30
2022-10-22T03:30:07.802Z,19.00
2022-10-22T03:32:37.158Z,18.30
2022-10-22T03:35:09.571Z,24.53
2022-10-22T03:37:37.304Z,23.43
2022-10-22T03:40:07.706Z,20.00
2022-10-22T03:42:34.761Z,18.73
2022-10-22T03:45:01.627Z,19.10
2022-10-22T03:47:31.440Z,16.30
2022-10-22T03:50:00.566Z,14.27
2022-10-22T03:52:36.114Z,20.53
2022-10-22T03:55:08.428Z,38.60
2022-10-22T03:57:35.419Z,22.70
2022-10-22T04:00:07.180Z,21.83
2022-10-22T04:02:34.105Z,18.90
2022-10-22T04:05:01.051Z,17.53
2022-10-22T04:07:28.152Z,15.13
2022-10-22T04:09:55.021Z,32.40
2022-10-22T04:12:21.833Z,18.00
2022-10-22T04:14:50.934Z,19.30
2022-10-22T04:17:20.289Z,16.63
2022-10-22T04:19:50.142Z,22.67
2022-10-22T04:22:19.563Z,19.57
2022-10-22T04:24:46.412Z,26.20
2022-10-22T04:27:13.252Z,26.33
2022-10-22T04:29:42.250Z,18.30
2022-10-22T04:32:09.083Z,18.70
2022-10-22T04:34:35.916Z,17.37
2022-10-22T04:37:05.105Z,18.97
2022-10-22T04:39:31.985Z,17.20
2022-10-22T04:42:03.606Z,30.40
2022-10-22T04:44:37.690Z,32.33
2022-10-22T04:47:04.636Z,23.90
2022-10-22T04:49:33.962Z,20.87
2022-10-22T04:52:00.831Z,20.60
2022-10-22T04:54:33.198Z,23.77
2022-10-22T04:57:03.152Z,27.50
2022-10-22T04:59:37.131Z,28.20
2022-10-22T05:02:03.994Z,19.60
2022-10-22T05:04:33.032Z,23.23
2022-10-22T05:06:59.871Z,19.10
2022-10-22T05:09:26.656Z,26.63
2022-10-22T05:11:53.719Z,30.73
2022-10-22T05:14:25.189Z,20.50
2022-10-22T05:16:52.998Z,19.17
2022-10-22T05:19:31.209Z,20.93
2022-10-22T05:22:05.364Z,24.50
2022-10-22T05:24:34.095Z,22.33
2022-10-22T05:27:01.217Z,28.83
2022-10-22T05:29:28.207Z,21.43
2022-10-22T05:31:57.513Z,22.10
2022-10-22T05:34:27.478Z,26.03
2022-10-22T05:36:54.309Z,16.10
2022-10-22T05:39:21.131Z,24.33
2022-10-22T05:41:48.002Z,24.10
2022-10-22T05:44:17.038Z,22.80
2022-10-22T05:46:43.920Z,19.70
2022-10-22T05:49:17.840Z,26.77
2022-10-22T05:51:45.017Z,24.80
2022-10-22T05:54:18.334Z,31.10
2022-10-22T05:56:47.981Z,22.70
2022-10-22T05:59:14.954Z,25.10
2022-10-22T06:01:44.903Z,17.40
2022-10-22T06:04:16.953Z,20.20
2022-10-22T06:06:52.770Z,16.20
2022-10-22T06:09:29.766Z,24.50
2022-10-22T06:12:02.665Z,16.20
2022-10-22T06:14:32.174Z,27.40
2022-10-22T06:17:00.441Z,19.83
2022-10-22T06:19:31.183Z,29.93
2022-10-22T06:21:58.142Z,22.27
2022-10-22T06:24:25.020Z,24.40
2022-10-22T06:26:52.634Z,22.30
2022-10-22T06:29:19.527Z,25.17
2022-10-22T06:31:48.747Z,23.23
2022-10-22T06:34:18.800Z,16.60
2022-10-22T06:36:46.628Z,19.40
2022-10-22T06:39:18.587Z,17.70
2022-10-22T06:41:45.917Z,23.50
2022-10-22T06:44:20.851Z,18.00
2022-10-22T06:46:52.377Z,25.73
2022-10-22T06:49:23.442Z,16.67
2022-10-22T06:51:52.615Z,20.70
2022-10-22T06:54:20.694Z,19.90
2022-10-22T06:56:49.824Z,24.63
2022-10-22T06:59:16.669Z,19.43
2022-10-22T07:01:43.542Z,20.17
2022-10-22T07:04:13.484Z,21.87
2022-10-22T07:06:40.350Z,21.07
2022-10-22T07:09:12.158Z,26.20
2022-10-22T07:11:45.595Z,29.20
2022-10-22T07:14:14.106Z,17.53
2022-10-22T07:16:45.655Z,21.33
2022-10-22T07:19:17.230Z,19.27
2022-10-22T07:21:47.041Z,24.63
2022-10-22T07:24:13.974Z,30.37
2022-10-22T07:26:43.372Z,24.10
2022-10-22T07:29:10.210Z,23.23
2022-10-22T07:31:39.680Z,19.73
2022-10-22T07:34:09.882Z,17.60
2022-10-22T07:36:36.893Z,28.30
2022-10-22T07:39:09.344Z,18.53
2022-10-22T07:41:38.741Z,19.53
2022-10-22T07:44:05.584Z,23.13
2022-10-22T07:46:35.256Z,19.60
2022-10-22T07:49:04.725Z,13.60
2022-10-22T07:51:33.646Z,18.40
2022-10-22T07:54:00.473Z,16.53
2022-10-22T07:56:29.387Z,15.47
2022-10-22T07:58:56.301Z,10.20
2022-10-22T08:01:23.142Z,13.43
2022-10-22T08:03:55.139Z,8.07
2022-10-22T08:06:25.126Z,12.60
2022-10-22T08:08:52.017Z,7.70
2022-10-22T08:11:18.921Z,8.30
2022-10-22T08:13:48.036Z,10.60
2022-10-22T08:16:18.214Z,14.87
2022-10-22T08:18:45.263Z,8.93
2022-10-22T08:21:13.209Z,7.80
2022-10-22T08:23:40.202Z,7.83
2022-10-22T08:26:07.020Z,12.83
2022-10-22T08:28:37.009Z,6.70
2022-10-22T08:31:09.058Z,9.30
2022-10-22T08:33:36.842Z,19.37
2022-10-22T08:36:03.907Z,13.63
2022-10-22T08:38:35.224Z,11.03
2022-10-22T08:41:19.421Z,10.50
2022-10-22T08:44:03.485Z,12.53
2022-10-22T08:46:46.617Z,25.90
2022-10-22T08:49:25.952Z,8.87
2022-10-22T08:51:53.254Z,10.20
2022-10-22T08:54:33.395Z,12.73
2022-10-22T08:57:10.961Z,6.77
2022-10-22T08:59:57.251Z,12.97
2022-10-22T09:02:40.628Z,12.10
2022-10-22T09:05:19.807Z,6.00
2022-10-22T09:07:50.192Z,6.67
2022-10-22T09:10:26.042Z,9.77
2022-10-22T09:12:53.192Z,5.83
2022-10-22T09:15:20.812Z,12.57
2022-10-22T09:17:59.852Z,5.10
2022-10-22T09:20:44.684Z,5.33
2022-10-22T09:23:35.713Z,5.27
2022-10-22T09:26:05.176Z,10.13
2022-10-22T09:28:32.123Z,6.57
2022-10-22T09:31:03.560Z,11.43
2022-10-22T09:33:40.112Z,6.47
2022-10-22T09:36:09.981Z,5.70
2022-10-22T09:39:24.480Z,6.47
2022-10-22T09:41:51.503Z,17.80
2022-10-22T09:44:25.485Z,4.50
2022-10-22T09:46:52.410Z,6.30
2022-10-22T09:49:25.384Z,4.37
2022-10-22T09:51:56.269Z,8.27
2022-10-22T09:54:38.958Z,6.53
2022-10-22T09:57:07.092Z,10.20
2022-10-22T09:59:43.869Z,8.63
2022-10-22T10:02:38.342Z,7.47
2022-10-22T10:05:09.283Z,5.53
2022-10-22T10:07:39.097Z,4.90
2022-10-22T10:10:36.679Z,7.60
2022-10-22T10:13:53.295Z,8.00
2022-10-22T10:16:54.998Z,3.17
2022-10-22T10:19:43.109Z,3.93
2022-10-22T10:22:18.791Z,8.30
2022-10-22T10:25:41.700Z,6.33
2022-10-22T10:28:57.289Z,4.30
2022-10-22T10:31:41.793Z,10.90
2022-10-22T10:34:19.196Z,13.03
2022-10-22T10:37:06.073Z,10.80
2022-10-22T10:39:35.161Z,7.40
2022-10-22T10:42:34.122Z,11.23
2022-10-22T10:45:26.794Z,3.70
2022-10-22T10:48:30.545Z,8.23
2022-10-22T10:51:14.568Z,9.33
2022-10-22T10:53:56.057Z,6.63
2022-10-22T10:56:45.466Z,2.73
2022-10-22T10:59:18.332Z,10.80
2022-10-22T11:02:30.168Z,8.10
2022-10-22T11:05:15.751Z,4.10
2022-10-22T11:07:58.539Z,3.73
2022-10-22T11:10:46.625Z,3.30
2022-10-22T11:13:32.121Z,2.30
2022-10-22T11:16:31.280Z,7.73
2022-10-22T11:19:22.766Z,3.30
2022-10-22T11:22:22.369Z,5.33
2022-10-22T11:25:13.284Z,9.13
2022-10-22T11:28:09.140Z,12.80
2022-10-22T11:30:46.300Z,10.90
2022-10-22T11:33:19.774Z,8.57
2022-10-22T11:35:48.338Z,7.97
2022-10-22T11:38:29.064Z,10.50
2022-10-22T11:41:16.282Z,3.70
2022-10-22T11:44:04.046Z,6.43
2022-10-22T11:46:57.563Z,5.07
2022-10-22T11:49:57.415Z,4.60
2022-10-22T11:52:41.630Z,7.30
2022-10-22T11:55:48.744Z,5.20
2022-10-22T11:58:45.054Z,11.43
2022-10-22T12:01:11.807Z,3.80
2022-10-22T12:03:54.142Z,4.87
2022-10-22T12:06:28.787Z,3.00
2022-10-22T12:09:07.043Z,5.33
2022-10-22T12:11:49.381Z,8.43
2022-10-22T12:14:40.743Z,12.07
2022-10-22T12:17:16.247Z,5.13
2022-10-22T12:20:11.836Z,8.83
2022-10-22T12:22:44.291Z,10.30
2022-10-22T12:25:26.020Z,6.80
2022-10-22T12:27:57.699Z,5.23
2022-10-22T12:30:31.549Z,6.23
2022-10-22T12:33:03.476Z,6.13
2022-10-22T12:35:42.811Z,6.63
2022-10-22T12:38:17.970Z,5.03
2022-10-22T12:40:48.484Z,6.57
2022-10-22T12:43:25.648Z,5.40
2022-10-22T12:45:54.710Z,11.60
2022-10-22T12:48:30.734Z,12.10
2022-10-22T12:51:04.030Z,9.30
2022-10-22T12:53:37.686Z,20.33
2022-10-22T12:56:20.859Z,11.40
2022-10-22T12:58:58.304Z,7.57
2022-10-22T13:01:29.766Z,3.80
2022-10-22T13:04:36.644Z,7.67
2022-10-22T13:07:21.118Z,7.50
2022-10-22T13:09:59.932Z,18.40
2022-10-22T13:12:37.109Z,9.70
2022-10-22T13:15:31.950Z,13.23
2022-10-22T13:18:35.188Z,6.20
2022-10-22T13:21:06.338Z,6.40
2022-10-22T13:23:35.620Z,9.83
2022-10-22T13:26:19.439Z,3.17
2022-10-22T13:28:56.202Z,7.70
2022-10-22T13:31:32.070Z,4.93
2022-10-22T13:34:09.723Z,13.70
2022-10-22T13:36:40.672Z,4.13
2022-10-22T13:39:14.651Z,6.73
2022-10-22T13:41:41.508Z,6.67
2022-10-22T13:44:10.423Z,8.07
2022-10-22T13:46:43.148Z,9.27
2022-10-22T13:49:23.299Z,12.90
2022-10-22T13:51:51.288Z,6.23
2022-10-22T13:54:23.948Z,6.37
2022-10-22T13:56:53.610Z,9.90
2022-10-22T13:59:23.894Z,9.50
2022-10-22T14:01:51.294Z,9.60
2022-10-22T14:04:18.143Z,6.73
2022-10-22T14:06:47.230Z,15.77
2022-10-22T14:09:24.612Z,5.47
2022-10-22T14:11:53.525Z,5.90
2022-10-22T14:14:20.358Z,29.53
2022-10-22T14:16:47.229Z,9.23
2022-10-22T14:19:18.179Z,8.90
2022-10-22T14:21:44.993Z,15.30
2022-10-22T14:24:13.400Z,6.60
2022-10-22T14:26:40.672Z,12.03
2022-10-22T14:29:10.719Z,12.40
2022-10-22T14:31:44.639Z,9.83
2022-10-22T14:34:16.602Z,12.60
2022-10-22T14:36:43.939Z,13.60
2022-10-22T14:39:14.001Z,8.20
2022-10-22T14:41:43.931Z,8.30
2022-10-22T14:44:18.375Z,8.30
2022-10-22T14:46:46.719Z,8.90
2022-10-22T14:49:13.590Z,6.23
2022-10-22T14:51:41.827Z,10.37
2022-10-22T14:54:11.144Z,15.80
2022-10-22T14:56:40.336Z,7.50
2022-10-22T14:59:09.657Z,8.90
2022-10-22T15:01:39.332Z,11.60
2022-10-22T15:04:06.143Z,16.53
2022-10-22T15:06:35.488Z,16.40
2022-10-22T15:09:02.424Z,11.03
2022-10-22T15:11:29.346Z,14.00
2022-10-22T15:14:00.738Z,12.47
2022-10-22T15:16:30.126Z,7.30
2022-10-22T15:18:57.270Z,10.70
2022-10-22T15:21:26.848Z,11.77
2022-10-22T15:23:58.606Z,12.70
2022-10-22T15:26:28.985Z,5.43
2022-10-22T15:28:58.254Z,6.67
2022-10-22T15:31:49.275Z,12.43
2022-10-22T15:34:28.219Z,8.50
2022-10-22T15:37:00.869Z,7.77
2022-10-22T15:39:29.858Z,15.40
2022-10-22T15:42:00.346Z,6.40
2022-10-22T15:44:32.077Z,6.87
2022-10-22T15:47:07.100Z,8.10
2022-10-22T15:49:38.032Z,19.73
2022-10-22T15:52:06.557Z,10.13
2022-10-22T15:54:33.616Z,17.33
2022-10-22T15:57:08.426Z,9.30
2022-10-22T15:59:36.071Z,8.73
2022-10-22T16:02:03.119Z,9.03
2022-10-22T16:04:29.966Z,7.80
2022-10-22T16:06:58.020Z,25.03
2022-10-22T16:09:27.551Z,17.57
2022-10-22T16:11:55.664Z,11.67
2022-10-22T16:14:25.536Z,11.07
2022-10-22T16:16:59.459Z,9.07
2022-10-22T16:19:31.611Z,11.07
2022-10-22T16:22:00.092Z,14.80
2022-10-22T16:24:29.236Z,19.30
2022-10-22T16:26:58.402Z,11.83
2022-10-22T16:29:25.236Z,10.03
2022-10-22T16:31:52.016Z,18.27
2022-10-22T16:34:18.891Z,9.47
2022-10-22T16:36:48.888Z,11.40
2022-10-22T16:39:16.438Z,13.73
2022-10-22T16:41:45.783Z,10.50
2022-10-22T16:44:13.285Z,11.87
2022-10-22T16:46:40.151Z,9.80
2022-10-22T16:49:07.792Z,17.90
2022-10-22T16:51:35.525Z,17.30
2022-10-22T16:54:08.123Z,10.50
2022-10-22T16:56:40.331Z,14.07
2022-10-22T16:59:09.475Z,18.63
2022-10-22T17:01:41.220Z,10.33
2022-10-22T17:04:17.236Z,12.03
2022-10-22T17:06:48.777Z,15.50
2022-10-22T17:09:20.635Z,4.57
2022-10-22T17:11:50.218Z,9.43
2022-10-22T17:14:17.118Z,6.73
2022-10-22T17:16:48.821Z,11.50
2022-10-22T17:19:15.915Z,9.73
2022-10-22T17:21:45.940Z,7.83
2022-10-22T17:24:15.228Z,14.87
2022-10-22T17:26:42.189Z,14.40
2022-10-22T17:29:11.578Z,14.70
2022-10-22T17:31:41.911Z,14.57
2022-10-22T17:34:15.836Z,9.70
2022-10-22T17:36:45.316Z,22.00
2022-10-22T17:39:20.156Z,15.73
2022-10-22T17:41:49.077Z,15.83
2022-10-22T17:44:16.311Z,9.57
2022-10-22T17:46:45.794Z,19.23
2022-10-22T17:49:19.617Z,14.00
2022-10-22T17:51:47.704Z,21.63
2022-10-22T17:54:15.100Z,7.63
2022-10-22T17:56:44.537Z,25.40
2022-10-22T17:59:14.960Z,8.77
2022-10-22T18:01:45.420Z,8.90
2022-10-22T18:04:17.838Z,16.07
2022-10-22T18:06:46.991Z,12.57
2022-10-22T18:09:18.602Z,12.00
2022-10-22T18:11:47.362Z,14.97
2022-10-22T18:14:16.906Z,14.53
2022-10-22T18:16:46.804Z,32.47
2022-10-22T18:19:22.501Z,16.90
2022-10-22T18:21:49.494Z,26.97
2022-10-22T18:24:16.926Z,9.63
2022-10-22T18:26:43.804Z,14.93
2022-10-22T18:29:18.019Z,14.43
2022-10-22T18:31:45.404Z,15.77
2022-10-22T18:34:12.700Z,11.77
2022-10-22T18:36:41.280Z,9.67
2022-10-22T18:39:08.193Z,11.57
2022-10-22T18:41:35.898Z,12.10
2022-10-22T18:44:05.466Z,18.83
2022-10-22T18:46:35.027Z,12.37
2022-10-22T18:49:06.836Z,26.93
2022-10-22T18:51:36.893Z,23.30
2022-10-22T18:54:05.671Z,11.13
2022-10-22T18:56:40.649Z,16.33
2022-10-22T18:59:14.342Z,11.40
2022-10-22T19:01:41.164Z,10.63
2022-10-22T19:04:07.951Z,7.40
2022-10-22T19:06:37.071Z,15.53
2022-10-22T19:09:08.923Z,20.50
2022-10-22T19:11:39.518Z,13.70
2022-10-22T19:14:06.309Z,17.63
2022-10-22T19:16:37.543Z,10.37
2022-10-22T19:19:08.811Z,20.73
2022-10-22T19:21:39.624Z,20.60
2022-10-22T19:24:10.272Z,14.93
2022-10-22T19:26:37.234Z,15.63
2022-10-22T19:29:05.210Z,14.90
2022-10-22T19:31:36.765Z,24.57
2022-10-22T19:34:04.944Z,16.97
2022-10-22T19:36:32.705Z,10.33
2022-10-22T19:39:03.189Z,10.93
2022-10-22T19:41:32.006Z,14.80
2022-10-22T19:44:00.541Z,9.13
2022-10-22T19:46:32.587Z,14.83
2022-10-22T19:49:02.862Z,18.10
2022-10-22T19:51:33.331Z,15.50
2022-10-22T19:54:05.780Z,20.50
2022-10-22T19:56:38.396Z,19.80
2022-10-22T19:59:06.117Z,11.43
2022-10-22T20:01:38.344Z,17.70
2022-10-22T20:04:05.514Z,12.50
2022-10-22T20:06:32.341Z,7.17
2022-10-22T20:09:01.681Z,17.00
2022-10-22T20:11:29.714Z,12.30
2022-10-22T20:13:57.832Z,9.67
2022-10-22T20:16:29.559Z,13.10
2022-10-22T20:19:06.053Z,7.80
2022-10-22T20:21:34.716Z,14.07
2022-10-22T20:24:07.060Z,25.80
2022-10-22T20:26:34.601Z,18.63
2022-10-22T20:29:01.457Z,10.47
2022-10-22T20:31:29.751Z,20.80
2022-10-22T20:34:01.264Z,18.30
2022-10-22T20:36:30.129Z,33.63
2022-10-22T20:39:04.844Z,13.43
2022-10-22T20:41:33.972Z,18.43
2022-10-22T20:44:01.247Z,20.10
2022-10-22T20:46:32.343Z,20.07
2022-10-22T20:49:14.528Z,13.77
2022-10-22T20:51:44.102Z,16.23
2022-10-22T20:54:11.482Z,14.07
2022-10-22T20:56:42.472Z,14.77
2022-10-22T20:59:12.108Z,13.93
2022-10-22T21:01:42.746Z,17.30
2022-10-22T21:04:12.708Z,21.40
2022-10-22T21:06:41.365Z,14.67
2022-10-22T21:09:12.750Z,20.53
2022-10-22T21:11:44.426Z,10.33
2022-10-22T21:14:14.318Z,24.53
2022-10-22T21:16:43.965Z,14.17
2022-10-22T21:19:13.397Z,21.97
2022-10-22T21:21:44.769Z,16.23
2022-10-22T21:24:11.794Z,11.80
2022-10-22T21:26:40.719Z,21.30
2022-10-22T21:29:08.725Z,15.73
2022-10-22T21:31:36.087Z,14.60
2022-10-22T21:34:12.884Z,26.40
2022-10-22T21:39:13.451Z,16.67
2022-10-22T21:41:40.300Z,17.87
2022-10-22T21:44:07.137Z,16.37
2022-10-22T21:46:34.675Z,18.93
2022-10-22T21:49:06.151Z,24.37
2022-10-22T21:51:36.374Z,21.33
2022-10-22T21:54:03.238Z,29.33
2022-10-22T21:56:37.733Z,13.60
2022-10-22T21:59:08.373Z,24.40
2022-10-22T22:01:35.970Z,15.63
2022-10-22T22:04:03.375Z,21.20
2022-10-22T22:06:35.315Z,29.93
2022-10-22T22:09:04.084Z,11.40
2022-10-22T22:11:31.078Z,14.90
2022-10-22T22:13:58.995Z,17.30
2022-10-22T22:16:29.551Z,15.47
2022-10-22T22:21:31.442Z,15.37
2022-10-22T22:23:58.784Z,23.80
2022-10-22T22:26:33.821Z,19.83
2022-10-22T22:29:01.240Z,13.40
2022-10-22T22:31:30.994Z,17.27
2022-10-22T22:34:06.260Z,18.73
2022-10-22T22:36:42.162Z,20.90
2022-10-22T22:39:15.646Z,23.53
2022-10-22T22:41:45.913Z,24.20
2022-10-22T22:44:13.438Z,19.73
2022-10-22T22:46:42.872Z,17.63
2022-10-22T22:49:10.139Z,21.07
2022-10-22T22:51:39.277Z,34.70
2022-10-22T22:54:06.089Z,21.03
2022-10-22T22:56:36.466Z,29.43
2022-10-22T22:59:05.025Z,21.43
2022-10-22T23:01:35.625Z,32.70
2022-10-22T23:04:19.363Z,16.87
2022-10-22T23:06:49.542Z,30.23
2022-10-22T23:11:53.011Z,25.17
2022-10-22T23:14:20.315Z,26.00
2022-10-22T23:16:51.335Z,20.60
2022-10-22T23:19:23.881Z,31.33
2022-10-22T23:21:54.306Z,16.40
2022-10-22T23:24:26.101Z,16.60
2022-10-22T23:27:02.748Z,20.17
2022-10-22T23:29:36.392Z,17.40
2022-10-22T23:32:07.935Z,16.73
2022-10-22T23:34:34.726Z,18.47
2022-10-22T23:37:03.836Z,25.73
2022-10-22T23:39:30.632Z,25.33
2022-10-22T23:41:58.376Z,30.17
2022-10-22T23:44:28.239Z,35.40
2022-10-22T23:46:57.949Z,28.30
2022-10-22T23:49:27.189Z,33.17
2022-10-22T23:51:56.540Z,21.30
2022-10-22T23:54:25.580Z,11.70
2022-10-22T23:56:52.424Z,30.23
2022-10-22T23:59:24.826Z,14.93
